COOK1: Arkansas River Nr Coolidge, KS

                                SHEF ID:       COOK1     ARKANSAS R NR COOLIDGE, KS
STATION TYPE:
Regulating: Stage = 8.00, Flow = 2050

PRECIP STAGE STAGE(2) RIV-FLOW WTR-TEMP CONDUCT BAT-LOAD
in ft ft cfs F umho/cm volt
Ccp-Rev Ccp-Rev Ccp-Rev Ccp-Rev Ccp-Rev Ccp-Rev Ccp-Rev
(America/Chicago)
07/11 00:00 0.00 2.53 2.63 56 76.62 5645 12.95
07/11 01:00 0.00 2.53 2.63 56 75.43 5652 12.89
07/11 02:00 0.00 2.49 2.62 53 74.21 5652 12.89
07/11 03:00 0.00 2.50 2.62 54 72.84 5686 12.89
07/11 04:00 0.00 2.50 2.62 54 71.47 5729 12.83
07/11 05:00 0.00 2.47 2.61 51 70.16 5789 12.83
07/11 06:00 0.00 2.50 2.62 54 69.03 5796 12.77
07/11 07:00 0.00 2.49 2.61 53 68.13 5805 12.77
07/11 08:00 0.00 2.49 2.64 53 67.73 5821 12.83
07/11 09:00 0.00 2.51 2.65 55 68.47 5825 12.89
07/11 10:00 0.00 2.58 2.75 61 70.32 5780 13.12
07/11 11:00 0.00 2.71 2.87 73 72.63 5593 13.53
07/11 12:00 0.00 2.77 2.94 79 74.86 5546 13.71
07/11 13:00 0.00 2.80 2.97 82 77.22 5544 13.77
07/11 14:00 0.00 2.83 2.96 86 79.66 5542 13.65
07/11 15:00 0.00 2.84 3.00 87 81.82 5535 13.65
07/11 16:00 0.00 2.84 3.01 87 83.71 5517 13.36
07/11 17:00 0.00 2.83 2.99 86 84.83 5528 13.18
07/11 18:00 0.00 2.84 3.02 87 85.08 5551 13.24
07/11 19:00 0.00 2.84 2.99 87 83.88 5573 13.12
07/11 20:00 0.00 2.84 2.97 87 82.26 5573 13.00
07/11 21:00 0.00 2.84 2.97 87 80.91 5548 13.00
07/11 22:00 0.00 2.81 2.96 84 80.20 5535 13.00
07/11 23:00 ---- ---- ---- ---- ---- ---- ----
Data processed at Fri 12Jul2024 04:30 GMT

Parsing this webpage?

Checkout our new Data API! CWMSDataAPI (CDA)

Timeseries IDs (TSIDs)

TSIDs used from left to right in the data table
COOL.Precip-Inc.Total.1Hour.1Hour.Ccp-Rev
COOL.Stage.Inst.1Hour.0.Ccp-Rev
COOL.Stage-Alt.Inst.1Hour.0.Ccp-Rev
COOL.Flow.Inst.1Hour.0.Ccp-Rev
COOL.Temp-Water.Inst.1Hour.0.Ccp-Rev
COOL.Cond.Inst.1Hour.0.Ccp-Rev
COOL.Volt-Battery Load.Inst.1Hour.0.Ccp-Rev

                            

All information presented herein is the property of the government of the United States of America and may be revised or deleted at any time without prior notice. Dissemination of this information without the expressed written consent of the Public Affairs Office, Tulsa District U.S. Army Corps of Engineers is strictly prohibited. These data are gathered electronically and, as presented, have NOT undergone any form of quality control. These data are NOT guaranteed to be valid or correct.